Brevard, North Carolina
Current Conditions -  °F | °C
As of 10:54 AM on Friday 19 Dec 2014 (Local Time) from KAVL Reporting Station
Clear Clear  
Wind Chill:   Ceiling: Unl
Heat Index:   Visibility: 10mi
Dew Point: -4°   Wind: 6mph
Humidity: 46%   Direction: 350°N
Pressure: 30.16"   Gusts: NA
Location:  35.23°N, 82.73°W
Report Text: KAVL 191554Z 35005KT 10SM CLR 07/M04 A3016 RMK AO2 SLP212 T00721039
Loading
Personal Weather Stations






























Interactive Weather Map New forecast layout! Learn more

10-Day Weather Forecast

Advertisements
Track Severe Weather on mobile